createdAt,value
2022-08-14T00:02:27.824Z,25.70
2022-08-14T00:04:59.601Z,25.60
2022-08-14T00:07:29.826Z,25.60
2022-08-14T00:10:50.356Z,25.60
2022-08-14T00:12:56.899Z,25.50
2022-08-14T00:15:43.287Z,25.50
2022-08-14T00:18:30.562Z,25.40
2022-08-14T00:21:11.353Z,25.40
2022-08-14T00:23:43.129Z,25.40
2022-08-14T00:26:23.041Z,25.40
2022-08-14T00:28:52.336Z,25.30
2022-08-14T00:31:35.330Z,25.30
2022-08-14T00:34:36.171Z,25.20
2022-08-14T00:36:59.282Z,25.20
2022-08-14T00:39:28.993Z,25.10
2022-08-14T00:41:58.511Z,25.10
2022-08-14T00:44:32.556Z,25.00
2022-08-14T00:47:03.480Z,25.00
2022-08-14T00:49:38.232Z,25.00
2022-08-14T00:52:14.193Z,25.00
2022-08-14T00:54:58.174Z,25.00
2022-08-14T00:57:28.976Z,24.90
2022-08-14T00:59:57.330Z,24.90
2022-08-14T01:02:28.238Z,24.90
2022-08-14T01:04:58.961Z,24.90
2022-08-14T01:07:29.842Z,24.80
2022-08-14T01:10:17.818Z,24.80
2022-08-14T01:12:48.721Z,24.80
2022-08-14T01:15:21.406Z,24.80
2022-08-14T01:18:17.339Z,24.80
2022-08-14T01:21:03.339Z,24.70
2022-08-14T01:23:41.784Z,24.70
2022-08-14T01:26:34.460Z,24.70
2022-08-14T01:29:06.919Z,24.60
2022-08-14T01:31:42.735Z,24.60
2022-08-14T01:35:21.073Z,24.50
2022-08-14T01:36:59.885Z,24.50
2022-08-14T01:39:32.280Z,24.50
2022-08-14T01:42:01.275Z,24.30
2022-08-14T01:44:33.748Z,24.40
2022-08-14T01:47:12.374Z,24.30
2022-08-14T01:49:59.557Z,24.30
2022-08-14T01:52:58.664Z,24.30
2022-08-14T01:55:30.473Z,24.30
2022-08-14T01:58:18.199Z,24.20
2022-08-14T02:00:48.110Z,24.20
2022-08-14T02:03:17.242Z,24.20
2022-08-14T02:05:46.041Z,24.20
2022-08-14T02:08:16.083Z,24.20
2022-08-14T02:11:15.896Z,24.10
2022-08-14T02:13:50.735Z,24.10
2022-08-14T02:16:26.292Z,24.10
2022-08-14T02:18:57.544Z,24.00
2022-08-14T02:21:31.762Z,24.00
2022-08-14T02:24:09.372Z,24.00
2022-08-14T02:28:24.970Z,24.00
2022-08-14T02:30:00.604Z,24.00
2022-08-14T02:32:36.953Z,23.90
2022-08-14T02:35:18.880Z,23.90
2022-08-14T02:37:49.541Z,23.80
2022-08-14T02:40:19.256Z,23.80
2022-08-14T02:42:54.727Z,23.80
2022-08-14T02:45:38.604Z,23.80
2022-08-14T02:49:01.971Z,23.70
2022-08-14T02:51:07.165Z,23.70
2022-08-14T02:53:42.475Z,23.70
2022-08-14T02:56:30.370Z,23.70
2022-08-14T02:59:07.154Z,23.60
2022-08-14T03:01:43.339Z,23.60
2022-08-14T03:04:13.280Z,23.60
2022-08-14T03:06:57.130Z,23.60
2022-08-14T03:10:25.274Z,23.50
2022-08-14T03:12:17.925Z,23.50
2022-08-14T03:15:03.675Z,23.40
2022-08-14T03:17:41.133Z,23.40
2022-08-14T03:20:24.159Z,23.40
2022-08-14T03:22:52.630Z,23.40
2022-08-14T03:25:23.100Z,23.40
2022-08-14T03:27:58.259Z,23.30
2022-08-14T03:30:38.870Z,23.30
2022-08-14T03:33:10.962Z,23.30
2022-08-14T03:36:00.384Z,23.30
2022-08-14T03:39:11.841Z,23.30
2022-08-14T03:41:23.034Z,23.20
2022-08-14T03:43:57.012Z,23.10
2022-08-14T03:46:39.113Z,23.10
2022-08-14T03:49:28.283Z,23.10
2022-08-14T03:51:58.361Z,23.10
2022-08-14T03:54:29.760Z,23.00
2022-08-14T03:57:02.656Z,23.00
2022-08-14T03:59:32.218Z,23.00
2022-08-14T04:02:04.483Z,23.00
2022-08-14T04:04:34.164Z,23.00
2022-08-14T04:07:03.320Z,23.00
2022-08-14T04:09:31.594Z,23.00
2022-08-14T04:11:59.929Z,22.90
2022-08-14T04:14:30.119Z,22.90
2022-08-14T04:16:58.601Z,22.80
2022-08-14T04:19:33.018Z,22.80
2022-08-14T04:22:06.333Z,22.80
2022-08-14T04:24:38.366Z,22.70
2022-08-14T04:27:09.586Z,22.70
2022-08-14T04:29:39.417Z,22.70
2022-08-14T04:32:57.335Z,22.70
2022-08-14T04:35:07.560Z,22.70
2022-08-14T04:37:56.561Z,22.70
2022-08-14T04:40:42.983Z,22.70
2022-08-14T04:43:38.322Z,22.70
2022-08-14T04:46:57.136Z,22.70
2022-08-14T04:49:00.430Z,22.70
2022-08-14T04:51:46.279Z,22.70
2022-08-14T04:54:14.956Z,22.70
2022-08-14T04:56:45.754Z,22.80
2022-08-14T04:59:14.649Z,22.70
2022-08-14T05:01:48.955Z,22.80
2022-08-14T05:04:20.817Z,23.00
2022-08-14T05:06:54.241Z,23.10
2022-08-14T05:09:24.671Z,23.30
2022-08-14T05:13:08.325Z,23.40
2022-08-14T05:14:53.448Z,23.70
2022-08-14T05:17:31.839Z,23.80
2022-08-14T05:21:54.582Z,24.00
2022-08-14T05:23:03.582Z,24.20
2022-08-14T05:25:33.552Z,24.40
2022-08-14T05:28:12.478Z,24.80
2022-08-14T05:30:44.563Z,25.30
2022-08-14T05:33:14.000Z,25.90
2022-08-14T05:35:44.245Z,26.50
2022-08-14T05:38:30.686Z,26.90
2022-08-14T05:41:00.726Z,27.40
2022-08-14T05:43:40.739Z,27.90
2022-08-14T05:46:15.202Z,28.30
2022-08-14T05:48:43.976Z,28.60
2022-08-14T05:51:13.604Z,28.80
2022-08-14T05:53:43.922Z,29.00
2022-08-14T05:56:29.052Z,29.00
2022-08-14T05:58:57.394Z,29.10
2022-08-14T06:01:31.408Z,29.10
2022-08-14T06:04:00.101Z,29.20
2022-08-14T06:06:28.466Z,29.20
2022-08-14T06:08:58.770Z,29.10
2022-08-14T06:11:30.834Z,29.10
2022-08-14T06:13:59.967Z,29.00
2022-08-14T06:16:28.143Z,29.00
2022-08-14T06:18:59.512Z,29.00
2022-08-14T06:21:27.818Z,29.00
2022-08-14T06:23:59.497Z,28.80
2022-08-14T06:26:30.270Z,28.50
2022-08-14T06:28:59.884Z,28.30
2022-08-14T06:31:28.088Z,28.20
2022-08-14T06:35:11.764Z,28.10
2022-08-14T06:36:44.606Z,27.90
2022-08-14T06:39:14.235Z,27.90
2022-08-14T06:41:56.800Z,27.80
2022-08-14T06:44:32.553Z,27.70
2022-08-14T06:47:02.870Z,27.60
2022-08-14T06:49:34.323Z,27.60
2022-08-14T06:52:15.946Z,27.50
2022-08-14T06:54:46.769Z,27.50
2022-08-14T06:57:14.947Z,27.50
2022-08-14T06:59:43.322Z,27.50
2022-08-14T07:02:29.868Z,27.60
2022-08-14T07:05:20.999Z,27.60
2022-08-14T07:07:53.070Z,27.70
2022-08-14T07:10:25.422Z,27.80
2022-08-14T07:13:03.916Z,27.80
2022-08-14T07:15:39.448Z,27.90
2022-08-14T07:18:09.580Z,28.00
2022-08-14T07:20:38.984Z,28.00
2022-08-14T07:23:19.757Z,28.00
2022-08-14T07:25:51.893Z,28.10
2022-08-14T07:28:24.475Z,28.10
2022-08-14T07:30:56.272Z,28.20
2022-08-14T07:33:29.466Z,28.30
2022-08-14T07:36:00.938Z,28.50
2022-08-14T07:38:37.558Z,28.70
2022-08-14T07:41:14.233Z,28.80
2022-08-14T07:43:47.508Z,28.90
2022-08-14T07:46:29.538Z,29.10
2022-08-14T07:48:59.566Z,29.20
2022-08-14T07:51:34.067Z,29.30
2022-08-14T07:54:04.141Z,29.50
2022-08-14T07:56:44.101Z,29.70
2022-08-14T07:59:18.695Z,29.90
2022-08-14T08:01:48.124Z,30.10
2022-08-14T08:04:26.943Z,30.30
2022-08-14T08:06:56.078Z,30.50
2022-08-14T08:09:32.387Z,30.80
2022-08-14T08:12:09.317Z,31.10
2022-08-14T08:14:56.928Z,31.30
2022-08-14T08:17:34.686Z,31.50
2022-08-14T08:20:09.285Z,31.70
2022-08-14T08:22:40.793Z,31.80
2022-08-14T08:25:13.937Z,32.00
2022-08-14T08:27:58.655Z,32.20
2022-08-14T08:30:27.827Z,32.50
2022-08-14T08:33:01.198Z,32.80
2022-08-14T08:35:46.924Z,33.00
2022-08-14T08:39:18.226Z,33.30
2022-08-14T08:41:11.196Z,33.50
2022-08-14T08:43:46.192Z,33.70
2022-08-14T08:46:23.906Z,33.80
2022-08-14T08:51:33.244Z,33.90
2022-08-14T08:54:05.346Z,34.00
2022-08-14T08:56:40.485Z,34.00
2022-08-14T08:59:22.253Z,34.10
2022-08-14T09:01:58.783Z,34.20
2022-08-14T09:04:29.886Z,34.30
2022-08-14T09:07:09.618Z,34.40
2022-08-14T09:09:53.714Z,34.50
2022-08-14T09:12:22.930Z,34.60
2022-08-14T09:14:53.304Z,34.70
2022-08-14T09:17:25.668Z,34.80
2022-08-14T09:19:55.402Z,35.00
2022-08-14T09:22:35.855Z,35.10
2022-08-14T09:25:07.133Z,35.10
2022-08-14T09:27:37.637Z,35.20
2022-08-14T09:30:30.605Z,35.30
2022-08-14T09:33:22.507Z,35.50
2022-08-14T09:36:05.044Z,35.60
2022-08-14T09:38:47.565Z,35.90
2022-08-14T09:42:17.815Z,36.00
2022-08-14T09:44:45.757Z,36.20
2022-08-14T09:47:16.899Z,36.40
2022-08-14T09:49:52.973Z,36.60
2022-08-14T09:52:33.297Z,36.70
2022-08-14T09:55:02.891Z,36.90
2022-08-14T09:57:32.527Z,36.90
2022-08-14T10:00:30.188Z,37.00
2022-08-14T10:03:05.919Z,37.00
2022-08-14T10:05:39.122Z,36.90
2022-08-14T10:08:26.541Z,36.80
2022-08-14T10:11:02.879Z,36.90
2022-08-14T10:13:37.142Z,37.10
2022-08-14T10:16:25.860Z,37.20
2022-08-14T10:19:09.519Z,37.20
2022-08-14T10:21:58.648Z,37.30
2022-08-14T10:24:37.280Z,37.20
2022-08-14T10:27:17.013Z,37.10
2022-08-14T10:29:50.916Z,37.10
2022-08-14T10:32:36.681Z,37.10
2022-08-14T10:35:15.130Z,37.10
2022-08-14T10:37:48.130Z,37.10
2022-08-14T10:40:38.743Z,37.00
2022-08-14T10:43:23.210Z,36.70
2022-08-14T10:46:03.767Z,36.50
2022-08-14T10:48:58.461Z,36.10
2022-08-14T10:51:34.032Z,35.80
2022-08-14T10:54:26.060Z,35.70
2022-08-14T10:57:20.221Z,35.70
2022-08-14T10:59:52.745Z,35.60
2022-08-14T11:02:44.823Z,35.70
2022-08-14T11:05:20.122Z,36.10
2022-08-14T11:08:01.850Z,36.30
2022-08-14T11:10:45.163Z,36.40
2022-08-14T11:13:21.233Z,36.40
2022-08-14T11:15:53.472Z,36.50
2022-08-14T11:18:32.111Z,36.60
2022-08-14T11:21:08.407Z,36.60
2022-08-14T11:23:41.161Z,36.70
2022-08-14T11:26:13.674Z,36.70
2022-08-14T11:28:47.356Z,36.70
2022-08-14T11:31:20.266Z,36.70
2022-08-14T11:33:57.352Z,36.70
2022-08-14T11:36:57.022Z,36.70
2022-08-14T11:39:33.360Z,36.70
2022-08-14T11:42:55.475Z,36.80
2022-08-14T11:44:56.623Z,36.90
2022-08-14T11:47:25.294Z,37.00
2022-08-14T11:49:54.832Z,37.10
2022-08-14T11:52:23.740Z,36.90
2022-08-14T11:55:00.499Z,36.80
2022-08-14T11:57:30.426Z,36.90
2022-08-14T12:00:04.698Z,37.10
2022-08-14T12:03:02.687Z,37.10
2022-08-14T12:05:33.901Z,36.70
2022-08-14T12:08:11.939Z,36.40
2022-08-14T12:10:44.950Z,36.00
2022-08-14T12:13:18.927Z,35.90
2022-08-14T12:15:59.783Z,35.90
2022-08-14T12:18:36.468Z,36.20
2022-08-14T12:21:19.225Z,36.30
2022-08-14T12:23:51.036Z,36.30
2022-08-14T12:26:39.651Z,36.30
2022-08-14T12:29:13.206Z,36.30
2022-08-14T12:31:44.868Z,36.40
2022-08-14T12:34:20.070Z,36.50
2022-08-14T12:36:49.023Z,36.70
2022-08-14T12:39:23.887Z,36.80
2022-08-14T12:42:01.476Z,36.80
2022-08-14T12:44:34.985Z,36.70
2022-08-14T12:47:09.604Z,36.40
2022-08-14T12:49:52.663Z,36.20
2022-08-14T12:52:41.749Z,36.10
2022-08-14T12:55:20.897Z,36.10
2022-08-14T12:57:53.725Z,36.30
2022-08-14T13:00:24.670Z,36.40
2022-08-14T13:02:56.417Z,36.50
2022-08-14T13:05:29.951Z,36.40
2022-08-14T13:07:59.491Z,36.20
2022-08-14T13:10:51.198Z,36.20
2022-08-14T13:13:21.062Z,36.10
2022-08-14T13:15:56.268Z,36.00
2022-08-14T13:18:28.188Z,35.90
2022-08-14T13:21:01.283Z,35.70
2022-08-14T13:23:36.155Z,35.50
2022-08-14T13:26:04.993Z,35.50
2022-08-14T13:29:00.559Z,35.30
2022-08-14T13:31:30.104Z,35.30
2022-08-14T13:34:00.060Z,35.20
2022-08-14T13:36:51.711Z,35.20
2022-08-14T13:39:17.547Z,35.00
2022-08-14T13:41:46.913Z,35.00
2022-08-14T13:44:22.050Z,34.90
2022-08-14T13:46:52.793Z,34.90
2022-08-14T13:49:20.966Z,34.80
2022-08-14T13:51:58.819Z,34.80
2022-08-14T13:54:32.699Z,34.80
2022-08-14T13:57:03.733Z,34.80
2022-08-14T13:59:37.372Z,34.80
2022-08-14T14:02:08.620Z,34.80
2022-08-14T14:04:42.651Z,34.80
2022-08-14T14:07:17.371Z,34.90
2022-08-14T14:09:51.016Z,35.00
2022-08-14T14:12:38.011Z,35.00
2022-08-14T14:15:13.714Z,35.10
2022-08-14T14:17:44.172Z,35.20
2022-08-14T14:20:35.455Z,35.20
2022-08-14T14:23:11.531Z,35.30
2022-08-14T14:25:48.090Z,35.30
2022-08-14T14:28:23.860Z,35.40
2022-08-14T14:30:57.471Z,35.50
2022-08-14T14:33:49.306Z,35.50
2022-08-14T14:36:21.946Z,35.60
2022-08-14T14:38:54.157Z,35.50
2022-08-14T14:41:25.725Z,35.60
2022-08-14T14:43:57.533Z,35.60
2022-08-14T14:46:36.048Z,35.50
2022-08-14T14:49:11.198Z,35.50
2022-08-14T14:51:43.542Z,35.40
2022-08-14T14:54:13.176Z,35.40
2022-08-14T14:56:47.613Z,35.30
2022-08-14T14:59:20.111Z,35.20
2022-08-14T15:01:52.380Z,35.10
2022-08-14T15:04:21.295Z,35.10
2022-08-14T15:06:50.198Z,35.20
2022-08-14T15:09:23.702Z,35.20
2022-08-14T15:11:52.182Z,35.30
2022-08-14T15:14:54.729Z,35.30
2022-08-14T15:17:10.868Z,35.30
2022-08-14T15:19:39.606Z,35.30
2022-08-14T15:22:10.690Z,35.40
2022-08-14T15:24:39.904Z,35.40
2022-08-14T15:27:09.246Z,35.40
2022-08-14T15:29:43.040Z,35.40
2022-08-14T15:32:13.913Z,35.40
2022-08-14T15:34:51.825Z,35.30
2022-08-14T15:37:22.727Z,35.30
2022-08-14T15:39:52.587Z,35.20
2022-08-14T15:42:23.007Z,35.10
2022-08-14T15:44:58.512Z,35.00
2022-08-14T15:47:32.607Z,35.00
2022-08-14T15:50:04.725Z,34.90
2022-08-14T15:52:37.045Z,34.80
2022-08-14T15:55:13.184Z,34.70
2022-08-14T15:58:02.343Z,34.80
2022-08-14T16:00:50.195Z,34.80
2022-08-14T16:03:24.983Z,34.80
2022-08-14T16:06:03.365Z,34.80
2022-08-14T16:08:31.549Z,34.80
2022-08-14T16:11:01.450Z,34.80
2022-08-14T16:13:42.185Z,34.80
2022-08-14T16:16:34.769Z,34.80
2022-08-14T16:19:11.078Z,34.80
2022-08-14T16:22:01.845Z,34.80
2022-08-14T16:24:34.693Z,34.80
2022-08-14T16:27:05.982Z,34.70
2022-08-14T16:29:39.002Z,34.70
2022-08-14T16:32:33.137Z,34.60
2022-08-14T16:34:59.008Z,34.60
2022-08-14T16:37:30.949Z,34.60
2022-08-14T16:40:03.293Z,34.60
2022-08-14T16:42:38.909Z,34.60
2022-08-14T16:45:27.336Z,34.50
2022-08-14T16:47:55.662Z,34.50
2022-08-14T16:50:40.551Z,34.50
2022-08-14T16:53:17.248Z,34.50
2022-08-14T16:55:53.440Z,34.40
2022-08-14T16:58:30.298Z,34.30
2022-08-14T17:01:22.962Z,34.20
2022-08-14T17:04:00.670Z,34.10
2022-08-14T17:06:55.694Z,34.00
2022-08-14T17:09:44.625Z,33.90
2022-08-14T17:12:29.108Z,33.90
2022-08-14T17:15:10.029Z,33.80
2022-08-14T17:17:57.856Z,33.70
2022-08-14T17:20:53.535Z,33.70
2022-08-14T17:23:17.794Z,33.70
2022-08-14T17:25:50.890Z,33.60
2022-08-14T17:28:51.416Z,33.50
2022-08-14T17:31:12.098Z,33.50
2022-08-14T17:36:31.321Z,33.40
2022-08-14T17:39:08.682Z,33.40
2022-08-14T17:41:44.220Z,33.40
2022-08-14T17:44:34.388Z,33.40
2022-08-14T17:47:18.403Z,33.40
2022-08-14T17:49:52.692Z,33.40
2022-08-14T17:52:36.548Z,33.30
2022-08-14T17:56:01.110Z,33.20
2022-08-14T17:58:20.314Z,33.20
2022-08-14T18:00:52.595Z,33.10
2022-08-14T18:03:45.804Z,33.10
2022-08-14T18:06:38.600Z,33.00
2022-08-14T18:08:59.779Z,33.00
2022-08-14T18:11:45.570Z,32.90
2022-08-14T18:14:32.527Z,32.80
2022-08-14T18:17:05.877Z,32.70
2022-08-14T18:19:37.698Z,32.60
2022-08-14T18:22:31.491Z,32.50
2022-08-14T18:25:02.363Z,32.30
2022-08-14T18:27:38.842Z,32.20
2022-08-14T18:30:33.163Z,32.10
2022-08-14T18:33:15.668Z,32.00
2022-08-14T18:35:59.090Z,32.00
2022-08-14T18:38:45.676Z,31.90
2022-08-14T18:41:36.638Z,31.80
2022-08-14T18:44:10.827Z,31.80
2022-08-14T18:47:22.279Z,31.70
2022-08-14T18:50:26.199Z,31.70
2022-08-14T18:53:05.762Z,31.60
2022-08-14T18:55:54.480Z,31.60
2022-08-14T18:58:34.374Z,31.50
2022-08-14T19:01:06.217Z,31.50
2022-08-14T19:03:57.544Z,31.30
2022-08-14T19:06:56.336Z,31.20
2022-08-14T19:09:56.373Z,31.10
2022-08-14T19:13:13.210Z,30.90
2022-08-14T19:15:56.153Z,30.90
2022-08-14T19:18:30.190Z,30.70
2022-08-14T19:21:01.398Z,30.60
2022-08-14T19:23:42.867Z,30.60
2022-08-14T19:26:36.596Z,30.50
2022-08-14T19:29:37.737Z,30.40
2022-08-14T19:32:36.583Z,30.40
2022-08-14T19:35:48.643Z,30.30
2022-08-14T19:38:52.113Z,30.20
2022-08-14T19:41:25.035Z,30.10
2022-08-14T19:44:10.895Z,30.00
2022-08-14T19:47:01.018Z,30.00
2022-08-14T19:50:08.601Z,29.90
2022-08-14T19:52:29.644Z,29.80
2022-08-14T19:54:59.075Z,29.70
2022-08-14T19:57:29.475Z,29.60
2022-08-14T20:00:04.470Z,29.50
2022-08-14T20:02:37.621Z,29.40
2022-08-14T20:05:12.319Z,29.30
2022-08-14T20:07:59.136Z,29.30
2022-08-14T20:11:06.478Z,29.20
2022-08-14T20:13:31.987Z,29.10
2022-08-14T20:16:12.257Z,29.00
2022-08-14T20:18:51.619Z,28.90
2022-08-14T20:21:21.677Z,28.80
2022-08-14T20:23:51.565Z,28.70
2022-08-14T20:26:31.246Z,28.70
2022-08-14T20:29:04.396Z,28.60
2022-08-14T20:31:36.920Z,28.60
2022-08-14T20:34:24.466Z,28.60
2022-08-14T20:37:04.652Z,28.50
2022-08-14T20:39:45.250Z,28.40
2022-08-14T20:42:43.551Z,28.40
2022-08-14T20:45:23.759Z,28.30
2022-08-14T20:48:01.033Z,28.10
2022-08-14T20:50:31.837Z,28.00
2022-08-14T20:53:06.111Z,28.00
2022-08-14T20:55:41.466Z,27.90
2022-08-14T20:58:42.013Z,27.80
2022-08-14T21:01:36.038Z,27.70
2022-08-14T21:04:22.369Z,27.70
2022-08-14T21:07:25.552Z,27.70
2022-08-14T21:10:06.328Z,27.70
2022-08-14T21:12:35.729Z,27.70
2022-08-14T21:15:10.238Z,27.70
2022-08-14T21:17:43.189Z,27.70
2022-08-14T21:20:25.753Z,27.70
2022-08-14T21:23:00.705Z,27.70
2022-08-14T21:25:31.688Z,27.70
2022-08-14T21:28:04.903Z,27.70
2022-08-14T21:30:51.828Z,27.70
2022-08-14T21:33:22.613Z,27.60
2022-08-14T21:35:55.000Z,27.50
2022-08-14T21:38:33.478Z,27.50
2022-08-14T21:41:41.310Z,27.50
2022-08-14T21:44:05.079Z,27.40
2022-08-14T21:46:49.835Z,27.40
2022-08-14T21:49:22.795Z,27.30
2022-08-14T21:52:00.001Z,27.20
2022-08-14T21:54:49.405Z,27.20
2022-08-14T21:58:46.357Z,27.10
2022-08-14T22:00:31.600Z,27.00
2022-08-14T22:03:02.591Z,26.90
2022-08-14T22:05:32.361Z,26.80
2022-08-14T22:08:02.663Z,26.70
2022-08-14T22:10:32.662Z,26.60
2022-08-14T22:13:01.898Z,26.60
2022-08-14T22:15:31.389Z,26.50
2022-08-14T22:18:00.355Z,26.50
2022-08-14T22:20:33.558Z,26.40
2022-08-14T22:23:08.564Z,26.40
2022-08-14T22:25:41.554Z,26.40
2022-08-14T22:28:15.553Z,26.40
2022-08-14T22:30:45.167Z,26.40
2022-08-14T22:33:15.608Z,26.30
2022-08-14T22:35:46.566Z,26.40
2022-08-14T22:38:35.588Z,26.40
2022-08-14T22:41:29.493Z,26.30
2022-08-14T22:44:01.775Z,26.20
2022-08-14T22:46:30.021Z,26.20
2022-08-14T22:48:58.679Z,26.20
2022-08-14T22:51:28.612Z,26.20
2022-08-14T22:53:58.211Z,26.30
2022-08-14T22:56:30.643Z,26.30
2022-08-14T22:59:02.135Z,26.30
2022-08-14T23:01:55.784Z,26.40
2022-08-14T23:04:35.272Z,26.40
2022-08-14T23:07:22.165Z,26.40
2022-08-14T23:09:56.019Z,26.40
2022-08-14T23:12:29.453Z,26.40
2022-08-14T23:15:00.217Z,26.40
2022-08-14T23:17:39.119Z,26.50
2022-08-14T23:20:18.947Z,26.40
2022-08-14T23:22:52.685Z,26.50
2022-08-14T23:25:56.973Z,26.50
2022-08-14T23:28:34.964Z,26.60
2022-08-14T23:31:09.825Z,26.60
2022-08-14T23:33:42.090Z,26.70
2022-08-14T23:36:31.475Z,26.70
2022-08-14T23:39:10.548Z,26.70
2022-08-14T23:41:47.145Z,26.80
2022-08-14T23:44:23.597Z,26.70
2022-08-14T23:46:56.873Z,26.70
2022-08-14T23:49:57.054Z,26.70
2022-08-14T23:52:51.234Z,26.70
2022-08-14T23:55:11.556Z,26.70
2022-08-14T23:57:44.067Z,26.70
